sensor_id;sensor_type;location;lat;lon;timestamp;P1;durP1;ratioP1;P2;durP2;ratioP2
7645;SDS011;3864;48.180;14.178;2023-06-22T00:01:13;6.20;;;2.70;;
7645;SDS011;3864;48.180;14.178;2023-06-22T00:03:40;4.78;;;2.95;;
7645;SDS011;3864;48.180;14.178;2023-06-22T00:06:08;6.97;;;4.22;;
7645;SDS011;3864;48.180;14.178;2023-06-22T00:08:35;6.90;;;4.30;;
7645;SDS011;3864;48.180;14.178;2023-06-22T00:11:04;7.82;;;3.28;;
7645;SDS011;3864;48.180;14.178;2023-06-22T00:13:31;7.35;;;3.45;;
7645;SDS011;3864;48.180;14.178;2023-06-22T00:15:58;6.55;;;3.40;;
7645;SDS011;3864;48.180;14.178;2023-06-22T00:18:26;5.95;;;3.53;;
7645;SDS011;3864;48.180;14.178;2023-06-22T00:20:56;6.63;;;3.30;;
7645;SDS011;3864;48.180;14.178;2023-06-22T00:23:24;6.80;;;3.33;;
7645;SDS011;3864;48.180;14.178;2023-06-22T00:25:52;7.20;;;3.28;;
7645;SDS011;3864;48.180;14.178;2023-06-22T00:28:21;7.13;;;3.20;;
7645;SDS011;3864;48.180;14.178;2023-06-22T00:30:48;14.23;;;4.65;;
7645;SDS011;3864;48.180;14.178;2023-06-22T00:33:16;7.15;;;3.03;;
7645;SDS011;3864;48.180;14.178;2023-06-22T00:35:43;6.60;;;3.22;;
7645;SDS011;3864;48.180;14.178;2023-06-22T00:38:11;7.68;;;3.22;;
7645;SDS011;3864;48.180;14.178;2023-06-22T00:40:38;6.47;;;3.38;;
7645;SDS011;3864;48.180;14.178;2023-06-22T00:43:05;6.35;;;3.22;;
7645;SDS011;3864;48.180;14.178;2023-06-22T00:45:34;7.55;;;3.33;;
7645;SDS011;3864;48.180;14.178;2023-06-22T00:48:02;7.38;;;3.17;;
7645;SDS011;3864;48.180;14.178;2023-06-22T00:50:32;7.05;;;3.30;;
7645;SDS011;3864;48.180;14.178;2023-06-22T00:53:01;8.35;;;3.65;;
7645;SDS011;3864;48.180;14.178;2023-06-22T00:55:33;7.10;;;3.83;;
7645;SDS011;3864;48.180;14.178;2023-06-22T00:58:03;6.95;;;3.55;;
7645;SDS011;3864;48.180;14.178;2023-06-22T01:00:34;7.80;;;4.00;;
7645;SDS011;3864;48.180;14.178;2023-06-22T01:03:01;7.18;;;3.70;;
7645;SDS011;3864;48.180;14.178;2023-06-22T01:05:29;7.43;;;3.30;;
7645;SDS011;3864;48.180;14.178;2023-06-22T01:08:03;7.55;;;3.50;;
7645;SDS011;3864;48.180;14.178;2023-06-22T01:10:36;8.05;;;3.97;;
7645;SDS011;3864;48.180;14.178;2023-06-22T01:13:11;9.85;;;4.07;;
7645;SDS011;3864;48.180;14.178;2023-06-22T01:15:48;7.82;;;3.80;;
7645;SDS011;3864;48.180;14.178;2023-06-22T01:18:19;8.88;;;3.60;;
7645;SDS011;3864;48.180;14.178;2023-06-22T01:20:50;8.95;;;3.67;;
7645;SDS011;3864;48.180;14.178;2023-06-22T01:23:22;9.27;;;3.55;;
7645;SDS011;3864;48.180;14.178;2023-06-22T01:25:57;8.88;;;4.32;;
7645;SDS011;3864;48.180;14.178;2023-06-22T01:31:18;7.15;;;3.58;;
7645;SDS011;3864;48.180;14.178;2023-06-22T01:33:49;6.50;;;3.53;;
7645;SDS011;3864;48.180;14.178;2023-06-22T01:36:18;7.68;;;4.13;;
7645;SDS011;3864;48.180;14.178;2023-06-22T01:38:46;6.13;;;3.40;;
7645;SDS011;3864;48.180;14.178;2023-06-22T01:41:15;7.70;;;3.72;;
7645;SDS011;3864;48.180;14.178;2023-06-22T01:43:43;9.48;;;3.22;;
7645;SDS011;3864;48.180;14.178;2023-06-22T01:46:13;7.03;;;4.03;;
7645;SDS011;3864;48.180;14.178;2023-06-22T01:51:11;10.40;;;4.82;;
7645;SDS011;3864;48.180;14.178;2023-06-22T01:53:39;5.70;;;3.30;;
7645;SDS011;3864;48.180;14.178;2023-06-22T01:56:06;8.90;;;4.00;;
7645;SDS011;3864;48.180;14.178;2023-06-22T01:58:34;11.52;;;5.10;;
7645;SDS011;3864;48.180;14.178;2023-06-22T02:01:06;8.75;;;3.72;;
7645;SDS011;3864;48.180;14.178;2023-06-22T02:03:41;7.28;;;3.55;;
7645;SDS011;3864;48.180;14.178;2023-06-22T02:06:13;9.25;;;4.75;;
7645;SDS011;3864;48.180;14.178;2023-06-22T02:08:46;8.27;;;4.00;;
7645;SDS011;3864;48.180;14.178;2023-06-22T02:11:16;9.25;;;3.50;;
7645;SDS011;3864;48.180;14.178;2023-06-22T02:13:46;8.77;;;3.97;;
7645;SDS011;3864;48.180;14.178;2023-06-22T02:16:14;7.13;;;3.97;;
7645;SDS011;3864;48.180;14.178;2023-06-22T02:18:47;9.93;;;4.65;;
7645;SDS011;3864;48.180;14.178;2023-06-22T02:21:16;7.25;;;3.92;;
7645;SDS011;3864;48.180;14.178;2023-06-22T02:23:43;8.13;;;4.10;;
7645;SDS011;3864;48.180;14.178;2023-06-22T02:26:11;9.48;;;3.90;;
7645;SDS011;3864;48.180;14.178;2023-06-22T02:28:39;7.80;;;4.05;;
7645;SDS011;3864;48.180;14.178;2023-06-22T02:31:06;10.43;;;4.10;;
7645;SDS011;3864;48.180;14.178;2023-06-22T02:33:33;6.72;;;3.65;;
7645;SDS011;3864;48.180;14.178;2023-06-22T02:36:02;9.38;;;4.57;;
7645;SDS011;3864;48.180;14.178;2023-06-22T02:38:30;10.98;;;4.78;;
7645;SDS011;3864;48.180;14.178;2023-06-22T02:40:59;9.85;;;4.15;;
7645;SDS011;3864;48.180;14.178;2023-06-22T02:43:26;10.60;;;4.55;;
7645;SDS011;3864;48.180;14.178;2023-06-22T02:45:54;7.47;;;3.92;;
7645;SDS011;3864;48.180;14.178;2023-06-22T02:48:21;8.93;;;4.60;;
7645;SDS011;3864;48.180;14.178;2023-06-22T02:50:49;8.57;;;4.20;;
7645;SDS011;3864;48.180;14.178;2023-06-22T02:53:18;8.27;;;4.68;;
7645;SDS011;3864;48.180;14.178;2023-06-22T02:55:45;8.30;;;3.90;;
7645;SDS011;3864;48.180;14.178;2023-06-22T02:58:13;9.63;;;4.38;;
7645;SDS011;3864;48.180;14.178;2023-06-22T03:00:41;9.60;;;4.60;;
7645;SDS011;3864;48.180;14.178;2023-06-22T03:03:09;9.15;;;4.68;;
7645;SDS011;3864;48.180;14.178;2023-06-22T03:05:36;8.80;;;4.25;;
7645;SDS011;3864;48.180;14.178;2023-06-22T03:08:05;7.82;;;4.18;;
7645;SDS011;3864;48.180;14.178;2023-06-22T03:10:34;8.98;;;4.70;;
7645;SDS011;3864;48.180;14.178;2023-06-22T03:13:01;11.23;;;4.90;;
7645;SDS011;3864;48.180;14.178;2023-06-22T03:15:28;7.93;;;3.92;;
7645;SDS011;3864;48.180;14.178;2023-06-22T03:17:56;7.07;;;4.10;;
7645;SDS011;3864;48.180;14.178;2023-06-22T03:20:23;9.32;;;4.25;;
7645;SDS011;3864;48.180;14.178;2023-06-22T03:22:52;7.60;;;4.10;;
7645;SDS011;3864;48.180;14.178;2023-06-22T03:25:19;8.65;;;4.50;;
7645;SDS011;3864;48.180;14.178;2023-06-22T03:27:48;8.25;;;4.65;;
7645;SDS011;3864;48.180;14.178;2023-06-22T03:30:15;10.10;;;4.80;;
7645;SDS011;3864;48.180;14.178;2023-06-22T03:32:43;8.77;;;4.30;;
7645;SDS011;3864;48.180;14.178;2023-06-22T03:35:11;9.57;;;4.15;;
7645;SDS011;3864;48.180;14.178;2023-06-22T03:37:39;6.70;;;4.35;;
7645;SDS011;3864;48.180;14.178;2023-06-22T03:40:07;10.77;;;4.90;;
7645;SDS011;3864;48.180;14.178;2023-06-22T03:42:35;8.90;;;3.95;;
7645;SDS011;3864;48.180;14.178;2023-06-22T03:45:05;8.93;;;4.70;;
7645;SDS011;3864;48.180;14.178;2023-06-22T03:47:33;8.75;;;4.78;;
7645;SDS011;3864;48.180;14.178;2023-06-22T03:50:00;12.60;;;4.70;;
7645;SDS011;3864;48.180;14.178;2023-06-22T03:52:28;8.10;;;4.30;;
7645;SDS011;3864;48.180;14.178;2023-06-22T03:54:56;8.57;;;4.50;;
7645;SDS011;3864;48.180;14.178;2023-06-22T03:57:23;10.38;;;5.15;;
7645;SDS011;3864;48.180;14.178;2023-06-22T03:59:51;9.75;;;5.18;;
7645;SDS011;3864;48.180;14.178;2023-06-22T04:02:19;9.65;;;4.97;;
7645;SDS011;3864;48.180;14.178;2023-06-22T04:04:46;9.65;;;4.72;;
7645;SDS011;3864;48.180;14.178;2023-06-22T04:07:13;10.15;;;5.18;;
7645;SDS011;3864;48.180;14.178;2023-06-22T04:09:41;9.77;;;4.63;;
7645;SDS011;3864;48.180;14.178;2023-06-22T04:12:08;9.93;;;4.63;;
7645;SDS011;3864;48.180;14.178;2023-06-22T04:14:36;8.85;;;4.60;;
7645;SDS011;3864;48.180;14.178;2023-06-22T04:17:04;7.97;;;4.30;;
7645;SDS011;3864;48.180;14.178;2023-06-22T04:19:33;7.65;;;4.28;;
7645;SDS011;3864;48.180;14.178;2023-06-22T04:22:00;9.32;;;4.85;;
7645;SDS011;3864;48.180;14.178;2023-06-22T04:24:27;8.75;;;4.45;;
7645;SDS011;3864;48.180;14.178;2023-06-22T04:26:54;7.78;;;5.03;;
7645;SDS011;3864;48.180;14.178;2023-06-22T04:29:22;11.20;;;5.40;;
7645;SDS011;3864;48.180;14.178;2023-06-22T04:31:55;10.40;;;4.43;;
7645;SDS011;3864;48.180;14.178;2023-06-22T04:34:23;9.05;;;4.25;;
7645;SDS011;3864;48.180;14.178;2023-06-22T04:36:54;9.23;;;4.35;;
7645;SDS011;3864;48.180;14.178;2023-06-22T04:39:22;6.55;;;3.97;;
7645;SDS011;3864;48.180;14.178;2023-06-22T04:41:49;10.02;;;4.78;;
7645;SDS011;3864;48.180;14.178;2023-06-22T04:44:17;9.25;;;4.47;;
7645;SDS011;3864;48.180;14.178;2023-06-22T04:46:49;8.77;;;4.57;;
7645;SDS011;3864;48.180;14.178;2023-06-22T04:49:19;7.03;;;3.50;;
7645;SDS011;3864;48.180;14.178;2023-06-22T04:51:47;9.20;;;4.30;;
7645;SDS011;3864;48.180;14.178;2023-06-22T04:54:16;14.57;;;4.30;;
7645;SDS011;3864;48.180;14.178;2023-06-22T04:56:44;10.02;;;4.57;;
7645;SDS011;3864;48.180;14.178;2023-06-22T04:59:11;8.02;;;3.90;;
7645;SDS011;3864;48.180;14.178;2023-06-22T05:01:39;7.47;;;4.10;;
7645;SDS011;3864;48.180;14.178;2023-06-22T05:04:07;6.60;;;3.60;;
7645;SDS011;3864;48.180;14.178;2023-06-22T05:06:35;7.93;;;3.72;;
7645;SDS011;3864;48.180;14.178;2023-06-22T05:09:02;7.35;;;3.55;;
7645;SDS011;3864;48.180;14.178;2023-06-22T05:11:32;7.70;;;3.95;;
7645;SDS011;3864;48.180;14.178;2023-06-22T05:14:00;8.63;;;3.95;;
7645;SDS011;3864;48.180;14.178;2023-06-22T05:16:27;9.88;;;4.32;;
7645;SDS011;3864;48.180;14.178;2023-06-22T05:18:54;8.30;;;3.80;;
7645;SDS011;3864;48.180;14.178;2023-06-22T05:21:22;8.55;;;4.32;;
7645;SDS011;3864;48.180;14.178;2023-06-22T05:23:53;6.32;;;3.78;;
7645;SDS011;3864;48.180;14.178;2023-06-22T05:26:21;7.85;;;4.57;;
7645;SDS011;3864;48.180;14.178;2023-06-22T05:28:50;8.55;;;4.10;;
7645;SDS011;3864;48.180;14.178;2023-06-22T05:31:18;7.85;;;3.83;;
7645;SDS011;3864;48.180;14.178;2023-06-22T05:33:46;9.40;;;4.55;;
7645;SDS011;3864;48.180;14.178;2023-06-22T05:36:14;11.18;;;5.10;;
7645;SDS011;3864;48.180;14.178;2023-06-22T05:38:42;9.23;;;4.40;;
7645;SDS011;3864;48.180;14.178;2023-06-22T05:41:09;10.82;;;4.85;;
7645;SDS011;3864;48.180;14.178;2023-06-22T05:43:36;8.00;;;4.68;;
7645;SDS011;3864;48.180;14.178;2023-06-22T05:46:05;8.48;;;5.45;;
7645;SDS011;3864;48.180;14.178;2023-06-22T05:48:33;11.18;;;5.57;;
7645;SDS011;3864;48.180;14.178;2023-06-22T05:51:00;9.07;;;4.95;;
7645;SDS011;3864;48.180;14.178;2023-06-22T05:53:27;12.85;;;5.65;;
7645;SDS011;3864;48.180;14.178;2023-06-22T05:55:55;12.15;;;5.18;;
7645;SDS011;3864;48.180;14.178;2023-06-22T05:58:22;10.45;;;5.20;;
7645;SDS011;3864;48.180;14.178;2023-06-22T06:00:50;9.90;;;5.55;;
7645;SDS011;3864;48.180;14.178;2023-06-22T06:03:18;8.45;;;5.13;;
7645;SDS011;3864;48.180;14.178;2023-06-22T06:05:46;10.32;;;5.40;;
7645;SDS011;3864;48.180;14.178;2023-06-22T06:08:13;11.30;;;6.35;;
7645;SDS011;3864;48.180;14.178;2023-06-22T06:10:40;10.30;;;4.97;;
7645;SDS011;3864;48.180;14.178;2023-06-22T06:13:08;10.65;;;5.30;;
7645;SDS011;3864;48.180;14.178;2023-06-22T06:15:35;10.55;;;5.22;;
7645;SDS011;3864;48.180;14.178;2023-06-22T06:18:03;10.18;;;5.22;;
7645;SDS011;3864;48.180;14.178;2023-06-22T06:20:33;11.13;;;5.75;;
7645;SDS011;3864;48.180;14.178;2023-06-22T06:23:00;11.35;;;6.00;;
7645;SDS011;3864;48.180;14.178;2023-06-22T06:25:28;8.23;;;5.22;;
7645;SDS011;3864;48.180;14.178;2023-06-22T06:27:55;10.55;;;5.78;;
7645;SDS011;3864;48.180;14.178;2023-06-22T06:30:23;12.27;;;5.38;;
7645;SDS011;3864;48.180;14.178;2023-06-22T06:32:50;11.45;;;5.80;;
7645;SDS011;3864;48.180;14.178;2023-06-22T06:35:17;11.23;;;5.22;;
7645;SDS011;3864;48.180;14.178;2023-06-22T06:37:47;10.30;;;5.50;;
7645;SDS011;3864;48.180;14.178;2023-06-22T06:40:16;12.93;;;4.78;;
7645;SDS011;3864;48.180;14.178;2023-06-22T06:42:44;9.50;;;4.88;;
7645;SDS011;3864;48.180;14.178;2023-06-22T06:45:14;9.15;;;5.20;;
7645;SDS011;3864;48.180;14.178;2023-06-22T06:47:43;10.15;;;4.30;;
7645;SDS011;3864;48.180;14.178;2023-06-22T06:50:11;10.65;;;4.60;;
7645;SDS011;3864;48.180;14.178;2023-06-22T06:52:39;12.13;;;4.82;;
7645;SDS011;3864;48.180;14.178;2023-06-22T06:55:09;9.38;;;4.72;;
7645;SDS011;3864;48.180;14.178;2023-06-22T06:57:37;7.80;;;4.95;;
7645;SDS011;3864;48.180;14.178;2023-06-22T07:00:05;11.90;;;5.53;;
7645;SDS011;3864;48.180;14.178;2023-06-22T07:02:37;10.10;;;4.85;;
7645;SDS011;3864;48.180;14.178;2023-06-22T07:05:04;10.00;;;4.72;;
7645;SDS011;3864;48.180;14.178;2023-06-22T07:07:32;9.25;;;5.28;;
7645;SDS011;3864;48.180;14.178;2023-06-22T07:10:00;13.18;;;5.60;;
7645;SDS011;3864;48.180;14.178;2023-06-22T07:12:29;8.27;;;4.40;;
7645;SDS011;3864;48.180;14.178;2023-06-22T07:15:00;13.45;;;4.85;;
7645;SDS011;3864;48.180;14.178;2023-06-22T07:17:29;9.30;;;5.40;;
7645;SDS011;3864;48.180;14.178;2023-06-22T07:19:56;11.43;;;5.10;;
7645;SDS011;3864;48.180;14.178;2023-06-22T07:22:24;8.57;;;4.53;;
7645;SDS011;3864;48.180;14.178;2023-06-22T07:24:51;9.02;;;4.90;;
7645;SDS011;3864;48.180;14.178;2023-06-22T07:27:18;7.80;;;4.75;;
7645;SDS011;3864;48.180;14.178;2023-06-22T07:29:47;11.23;;;4.53;;
7645;SDS011;3864;48.180;14.178;2023-06-22T07:32:15;8.05;;;4.90;;
7645;SDS011;3864;48.180;14.178;2023-06-22T07:34:43;8.18;;;4.78;;
7645;SDS011;3864;48.180;14.178;2023-06-22T07:37:10;8.02;;;4.30;;
7645;SDS011;3864;48.180;14.178;2023-06-22T07:39:37;10.93;;;3.97;;
7645;SDS011;3864;48.180;14.178;2023-06-22T07:42:05;13.20;;;5.57;;
7645;SDS011;3864;48.180;14.178;2023-06-22T07:44:32;11.27;;;5.03;;
7645;SDS011;3864;48.180;14.178;2023-06-22T07:47:01;8.40;;;5.10;;
7645;SDS011;3864;48.180;14.178;2023-06-22T07:49:29;9.70;;;4.22;;
7645;SDS011;3864;48.180;14.178;2023-06-22T07:51:56;8.95;;;4.80;;
7645;SDS011;3864;48.180;14.178;2023-06-22T07:54:23;9.07;;;4.55;;
7645;SDS011;3864;48.180;14.178;2023-06-22T07:56:51;8.48;;;4.60;;
7645;SDS011;3864;48.180;14.178;2023-06-22T07:59:18;9.02;;;4.85;;
7645;SDS011;3864;48.180;14.178;2023-06-22T08:01:45;8.77;;;4.63;;
7645;SDS011;3864;48.180;14.178;2023-06-22T08:04:16;7.97;;;4.47;;
7645;SDS011;3864;48.180;14.178;2023-06-22T08:06:43;8.40;;;4.65;;
7645;SDS011;3864;48.180;14.178;2023-06-22T08:09:10;8.05;;;4.97;;
7645;SDS011;3864;48.180;14.178;2023-06-22T08:11:37;7.53;;;4.03;;
7645;SDS011;3864;48.180;14.178;2023-06-22T08:14:05;8.43;;;4.28;;
7645;SDS011;3864;48.180;14.178;2023-06-22T08:16:32;9.07;;;4.95;;
7645;SDS011;3864;48.180;14.178;2023-06-22T08:18:59;8.52;;;4.13;;
7645;SDS011;3864;48.180;14.178;2023-06-22T08:21:27;6.60;;;3.92;;
7645;SDS011;3864;48.180;14.178;2023-06-22T08:23:55;7.68;;;4.68;;
7645;SDS011;3864;48.180;14.178;2023-06-22T08:26:22;7.47;;;4.07;;
7645;SDS011;3864;48.180;14.178;2023-06-22T08:28:49;7.43;;;4.70;;
7645;SDS011;3864;48.180;14.178;2023-06-22T08:31:17;8.50;;;4.97;;
7645;SDS011;3864;48.180;14.178;2023-06-22T08:33:45;9.55;;;5.32;;
7645;SDS011;3864;48.180;14.178;2023-06-22T08:36:12;7.75;;;4.47;;
7645;SDS011;3864;48.180;14.178;2023-06-22T08:38:41;8.90;;;4.50;;
7645;SDS011;3864;48.180;14.178;2023-06-22T08:41:09;8.00;;;4.43;;
7645;SDS011;3864;48.180;14.178;2023-06-22T08:43:36;8.85;;;4.90;;
7645;SDS011;3864;48.180;14.178;2023-06-22T08:46:04;7.25;;;4.70;;
7645;SDS011;3864;48.180;14.178;2023-06-22T08:48:31;7.35;;;4.50;;
7645;SDS011;3864;48.180;14.178;2023-06-22T08:50:59;8.23;;;4.18;;
7645;SDS011;3864;48.180;14.178;2023-06-22T08:53:26;6.55;;;4.10;;
7645;SDS011;3864;48.180;14.178;2023-06-22T08:55:55;8.23;;;4.55;;
7645;SDS011;3864;48.180;14.178;2023-06-22T08:58:22;7.38;;;4.03;;
7645;SDS011;3864;48.180;14.178;2023-06-22T09:00:49;10.18;;;5.53;;
7645;SDS011;3864;48.180;14.178;2023-06-22T09:03:17;10.10;;;4.45;;
7645;SDS011;3864;48.180;14.178;2023-06-22T09:05:45;7.88;;;4.32;;
7645;SDS011;3864;48.180;14.178;2023-06-22T09:08:13;11.82;;;4.35;;
7645;SDS011;3864;48.180;14.178;2023-06-22T09:10:40;6.93;;;4.00;;
7645;SDS011;3864;48.180;14.178;2023-06-22T09:13:09;7.30;;;4.07;;
7645;SDS011;3864;48.180;14.178;2023-06-22T09:15:36;8.93;;;4.40;;
7645;SDS011;3864;48.180;14.178;2023-06-22T09:18:04;9.63;;;4.38;;
7645;SDS011;3864;48.180;14.178;2023-06-22T09:20:31;9.30;;;4.88;;
7645;SDS011;3864;48.180;14.178;2023-06-22T09:22:59;8.55;;;4.22;;
7645;SDS011;3864;48.180;14.178;2023-06-22T09:25:26;9.15;;;4.20;;
7645;SDS011;3864;48.180;14.178;2023-06-22T09:27:54;15.70;;;5.03;;
7645;SDS011;3864;48.180;14.178;2023-06-22T09:30:23;9.18;;;4.50;;
7645;SDS011;3864;48.180;14.178;2023-06-22T09:32:51;11.15;;;4.40;;
7645;SDS011;3864;48.180;14.178;2023-06-22T09:35:19;10.98;;;4.60;;
7645;SDS011;3864;48.180;14.178;2023-06-22T09:37:46;7.88;;;4.53;;
7645;SDS011;3864;48.180;14.178;2023-06-22T09:40:14;11.95;;;5.20;;
7645;SDS011;3864;48.180;14.178;2023-06-22T09:42:42;9.13;;;4.88;;
7645;SDS011;3864;48.180;14.178;2023-06-22T09:45:12;8.85;;;4.30;;
7645;SDS011;3864;48.180;14.178;2023-06-22T09:47:41;8.40;;;4.53;;
7645;SDS011;3864;48.180;14.178;2023-06-22T09:50:08;8.27;;;4.35;;
7645;SDS011;3864;48.180;14.178;2023-06-22T09:52:36;11.55;;;4.82;;
7645;SDS011;3864;48.180;14.178;2023-06-22T09:55:04;10.63;;;4.35;;
7645;SDS011;3864;48.180;14.178;2023-06-22T09:57:32;10.30;;;4.63;;
7645;SDS011;3864;48.180;14.178;2023-06-22T09:59:59;10.10;;;4.88;;
7645;SDS011;3864;48.180;14.178;2023-06-22T10:02:26;11.48;;;4.97;;
7645;SDS011;3864;48.180;14.178;2023-06-22T10:04:57;7.85;;;4.55;;
7645;SDS011;3864;48.180;14.178;2023-06-22T10:07:24;7.60;;;4.25;;
7645;SDS011;3864;48.180;14.178;2023-06-22T10:09:51;13.60;;;4.82;;
7645;SDS011;3864;48.180;14.178;2023-06-22T10:12:18;7.85;;;4.70;;
7645;SDS011;3864;48.180;14.178;2023-06-22T10:14:45;7.65;;;4.60;;
7645;SDS011;3864;48.180;14.178;2023-06-22T10:17:25;8.77;;;4.82;;
7645;SDS011;3864;48.180;14.178;2023-06-22T10:19:53;9.15;;;5.03;;
7645;SDS011;3864;48.180;14.178;2023-06-22T10:22:21;7.38;;;4.30;;
7645;SDS011;3864;48.180;14.178;2023-06-22T10:24:49;11.55;;;5.13;;
7645;SDS011;3864;48.180;14.178;2023-06-22T10:27:16;9.50;;;4.55;;
7645;SDS011;3864;48.180;14.178;2023-06-22T10:29:44;10.55;;;4.60;;
7645;SDS011;3864;48.180;14.178;2023-06-22T10:32:13;12.65;;;4.68;;
7645;SDS011;3864;48.180;14.178;2023-06-22T10:34:41;7.18;;;4.13;;
7645;SDS011;3864;48.180;14.178;2023-06-22T10:37:08;9.23;;;4.78;;
7645;SDS011;3864;48.180;14.178;2023-06-22T10:39:36;9.25;;;4.63;;
7645;SDS011;3864;48.180;14.178;2023-06-22T10:42:04;9.05;;;4.70;;
7645;SDS011;3864;48.180;14.178;2023-06-22T10:44:32;9.80;;;4.80;;
7645;SDS011;3864;48.180;14.178;2023-06-22T10:46:59;8.90;;;5.07;;
7645;SDS011;3864;48.180;14.178;2023-06-22T10:49:26;8.77;;;4.50;;
7645;SDS011;3864;48.180;14.178;2023-06-22T10:51:55;11.20;;;5.00;;
7645;SDS011;3864;48.180;14.178;2023-06-22T10:54:22;7.80;;;4.80;;
7645;SDS011;3864;48.180;14.178;2023-06-22T10:56:51;8.18;;;4.68;;
7645;SDS011;3864;48.180;14.178;2023-06-22T11:01:49;10.30;;;4.72;;
7645;SDS011;3864;48.180;14.178;2023-06-22T11:04:17;9.50;;;5.30;;
7645;SDS011;3864;48.180;14.178;2023-06-22T11:06:44;9.70;;;4.70;;
7645;SDS011;3864;48.180;14.178;2023-06-22T11:09:11;8.10;;;4.28;;
7645;SDS011;3864;48.180;14.178;2023-06-22T11:11:43;12.77;;;5.95;;
7645;SDS011;3864;48.180;14.178;2023-06-22T11:14:13;9.48;;;5.13;;
7645;SDS011;3864;48.180;14.178;2023-06-22T11:16:40;8.52;;;4.53;;
7645;SDS011;3864;48.180;14.178;2023-06-22T11:19:07;12.80;;;5.53;;
7645;SDS011;3864;48.180;14.178;2023-06-22T11:21:37;11.15;;;4.95;;
7645;SDS011;3864;48.180;14.178;2023-06-22T11:24:05;12.10;;;4.93;;
7645;SDS011;3864;48.180;14.178;2023-06-22T11:26:33;14.73;;;5.50;;
7645;SDS011;3864;48.180;14.178;2023-06-22T11:29:01;11.05;;;4.93;;
7645;SDS011;3864;48.180;14.178;2023-06-22T11:31:32;12.52;;;5.47;;
7645;SDS011;3864;48.180;14.178;2023-06-22T11:33:59;10.02;;;5.07;;
7645;SDS011;3864;48.180;14.178;2023-06-22T11:36:27;12.82;;;4.65;;
7645;SDS011;3864;48.180;14.178;2023-06-22T11:38:58;13.13;;;6.05;;
7645;SDS011;3864;48.180;14.178;2023-06-22T11:41:25;9.38;;;4.72;;
7645;SDS011;3864;48.180;14.178;2023-06-22T11:43:53;10.73;;;4.95;;
7645;SDS011;3864;48.180;14.178;2023-06-22T11:46:20;12.80;;;5.72;;
7645;SDS011;3864;48.180;14.178;2023-06-22T11:48:49;10.38;;;5.15;;
7645;SDS011;3864;48.180;14.178;2023-06-22T11:51:16;9.75;;;5.30;;
7645;SDS011;3864;48.180;14.178;2023-06-22T11:53:44;12.50;;;5.28;;
7645;SDS011;3864;48.180;14.178;2023-06-22T11:56:11;9.23;;;5.57;;
7645;SDS011;3864;48.180;14.178;2023-06-22T11:58:39;12.60;;;5.55;;
7645;SDS011;3864;48.180;14.178;2023-06-22T12:01:06;12.13;;;5.32;;
7645;SDS011;3864;48.180;14.178;2023-06-22T12:03:33;12.48;;;5.70;;
7645;SDS011;3864;48.180;14.178;2023-06-22T12:06:02;8.68;;;5.30;;
7645;SDS011;3864;48.180;14.178;2023-06-22T12:08:29;9.27;;;4.80;;
7645;SDS011;3864;48.180;14.178;2023-06-22T12:10:56;8.50;;;5.07;;
7645;SDS011;3864;48.180;14.178;2023-06-22T12:13:24;9.38;;;5.70;;
7645;SDS011;3864;48.180;14.178;2023-06-22T12:15:51;8.38;;;5.13;;
7645;SDS011;3864;48.180;14.178;2023-06-22T12:18:18;10.00;;;6.10;;
7645;SDS011;3864;48.180;14.178;2023-06-22T12:20:46;12.90;;;6.15;;
7645;SDS011;3864;48.180;14.178;2023-06-22T12:23:15;9.60;;;5.63;;
7645;SDS011;3864;48.180;14.178;2023-06-22T12:25:44;8.38;;;5.25;;
7645;SDS011;3864;48.180;14.178;2023-06-22T12:28:11;10.88;;;6.05;;
7645;SDS011;3864;48.180;14.178;2023-06-22T12:30:39;11.45;;;6.07;;
7645;SDS011;3864;48.180;14.178;2023-06-22T12:33:06;9.02;;;5.30;;
7645;SDS011;3864;48.180;14.178;2023-06-22T12:35:34;11.98;;;5.82;;
7645;SDS011;3864;48.180;14.178;2023-06-22T12:38:01;11.88;;;6.05;;
7645;SDS011;3864;48.180;14.178;2023-06-22T12:40:33;11.65;;;5.75;;
7645;SDS011;3864;48.180;14.178;2023-06-22T12:43:00;9.80;;;5.47;;
7645;SDS011;3864;48.180;14.178;2023-06-22T12:45:28;12.90;;;6.28;;
7645;SDS011;3864;48.180;14.178;2023-06-22T12:47:58;10.07;;;5.85;;
7645;SDS011;3864;48.180;14.178;2023-06-22T12:50:25;9.18;;;5.55;;
7645;SDS011;3864;48.180;14.178;2023-06-22T12:52:52;11.60;;;6.28;;
7645;SDS011;3864;48.180;14.178;2023-06-22T12:55:20;9.85;;;5.50;;
7645;SDS011;3864;48.180;14.178;2023-06-22T12:57:49;11.43;;;6.07;;
7645;SDS011;3864;48.180;14.178;2023-06-22T13:00:17;14.10;;;5.97;;
7645;SDS011;3864;48.180;14.178;2023-06-22T13:02:45;10.07;;;5.72;;
7645;SDS011;3864;48.180;14.178;2023-06-22T13:05:12;10.02;;;6.03;;
7645;SDS011;3864;48.180;14.178;2023-06-22T13:07:40;10.45;;;5.53;;
7645;SDS011;3864;48.180;14.178;2023-06-22T13:10:07;9.35;;;5.70;;
7645;SDS011;3864;48.180;14.178;2023-06-22T13:12:38;11.77;;;5.88;;
7645;SDS011;3864;48.180;14.178;2023-06-22T13:15:08;12.88;;;6.10;;
7645;SDS011;3864;48.180;14.178;2023-06-22T13:17:36;9.82;;;5.32;;
7645;SDS011;3864;48.180;14.178;2023-06-22T13:20:03;16.48;;;6.05;;
7645;SDS011;3864;48.180;14.178;2023-06-22T13:22:32;10.07;;;5.63;;
7645;SDS011;3864;48.180;14.178;2023-06-22T13:25:05;9.80;;;6.00;;
7645;SDS011;3864;48.180;14.178;2023-06-22T13:27:36;9.05;;;6.13;;
7645;SDS011;3864;48.180;14.178;2023-06-22T13:30:04;9.60;;;5.93;;
7645;SDS011;3864;48.180;14.178;2023-06-22T13:32:35;9.65;;;5.80;;
7645;SDS011;3864;48.180;14.178;2023-06-22T13:35:02;12.55;;;6.90;;
7645;SDS011;3864;48.180;14.178;2023-06-22T13:37:30;12.68;;;6.20;;
7645;SDS011;3864;48.180;14.178;2023-06-22T13:39:57;9.80;;;6.07;;
7645;SDS011;3864;48.180;14.178;2023-06-22T13:42:25;11.18;;;5.65;;
7645;SDS011;3864;48.180;14.178;2023-06-22T13:44:52;11.90;;;6.30;;
7645;SDS011;3864;48.180;14.178;2023-06-22T13:47:21;10.63;;;5.60;;
7645;SDS011;3864;48.180;14.178;2023-06-22T13:49:48;11.25;;;5.72;;
7645;SDS011;3864;48.180;14.178;2023-06-22T13:52:16;13.82;;;6.00;;
7645;SDS011;3864;48.180;14.178;2023-06-22T13:54:43;10.68;;;5.90;;
7645;SDS011;3864;48.180;14.178;2023-06-22T13:57:10;11.00;;;6.35;;
7645;SDS011;3864;48.180;14.178;2023-06-22T13:59:37;9.73;;;6.03;;
7645;SDS011;3864;48.180;14.178;2023-06-22T14:02:05;10.45;;;5.97;;
7645;SDS011;3864;48.180;14.178;2023-06-22T14:04:37;9.13;;;6.13;;
7645;SDS011;3864;48.180;14.178;2023-06-22T14:07:04;12.43;;;5.70;;
7645;SDS011;3864;48.180;14.178;2023-06-22T14:09:32;9.30;;;5.88;;
7645;SDS011;3864;48.180;14.178;2023-06-22T14:12:02;12.77;;;6.78;;
7645;SDS011;3864;48.180;14.178;2023-06-22T14:14:31;9.80;;;6.43;;
7645;SDS011;3864;48.180;14.178;2023-06-22T14:16:58;11.55;;;6.57;;
7645;SDS011;3864;48.180;14.178;2023-06-22T14:19:26;10.82;;;6.50;;
7645;SDS011;3864;48.180;14.178;2023-06-22T14:21:55;9.85;;;6.53;;
7645;SDS011;3864;48.180;14.178;2023-06-22T14:24:22;14.13;;;7.53;;
7645;SDS011;3864;48.180;14.178;2023-06-22T14:26:49;11.52;;;6.38;;
7645;SDS011;3864;48.180;14.178;2023-06-22T14:29:17;10.55;;;6.68;;
7645;SDS011;3864;48.180;14.178;2023-06-22T14:31:44;10.77;;;6.78;;
7645;SDS011;3864;48.180;14.178;2023-06-22T14:34:12;9.63;;;7.18;;
7645;SDS011;3864;48.180;14.178;2023-06-22T14:36:40;12.52;;;7.57;;
7645;SDS011;3864;48.180;14.178;2023-06-22T14:39:10;11.30;;;7.57;;
7645;SDS011;3864;48.180;14.178;2023-06-22T14:41:37;13.13;;;6.95;;
7645;SDS011;3864;48.180;14.178;2023-06-22T14:44:04;11.27;;;7.45;;
7645;SDS011;3864;48.180;14.178;2023-06-22T14:46:31;11.45;;;7.28;;
7645;SDS011;3864;48.180;14.178;2023-06-22T14:48:58;11.43;;;7.65;;
7645;SDS011;3864;48.180;14.178;2023-06-22T14:51:26;11.07;;;6.95;;
7645;SDS011;3864;48.180;14.178;2023-06-22T14:53:56;12.57;;;7.32;;
7645;SDS011;3864;48.180;14.178;2023-06-22T14:56:28;16.27;;;8.55;;
7645;SDS011;3864;48.180;14.178;2023-06-22T14:58:55;15.20;;;7.57;;
7645;SDS011;3864;48.180;14.178;2023-06-22T15:01:22;10.85;;;8.00;;
7645;SDS011;3864;48.180;14.178;2023-06-22T15:03:49;13.45;;;8.15;;
7645;SDS011;3864;48.180;14.178;2023-06-22T15:06:16;14.95;;;8.10;;
7645;SDS011;3864;48.180;14.178;2023-06-22T15:08:43;14.80;;;7.97;;